Turtle Lake, Wisconsin
Current Conditions -  °F | °C
As of 5:55 PM on Friday 24 Oct 2014 (Local Time) from KUBE Reporting Station
Overcast Overcast  
Wind Chill: 55°   Ceiling: 900
Heat Index: 55°   Visibility: 7mi
Dew Point: 54°   Wind: 5mph
Humidity: 94%   Direction: 200°SSW
Pressure: 29.85"   Gusts: NA
Location:  45.39°N, 92.14°W
Report Text: KUBE 242255Z AUTO 20004KT 7SM OVC009 13/12 A2985 RMK AO2
Loading
Personal Weather Stations






























Interactive Weather Map
Tropical Storm Tracking
New forecast layout! Learn more

10-Day Weather Forecast

Advertisements
Track Severe Weather on mobile